createdAt,value
2023-05-05T00:01:53.260Z,15.20
2023-05-05T00:04:22.796Z,14.70
2023-05-05T00:06:50.906Z,15.90
2023-05-05T00:09:18.800Z,15.90
2023-05-05T00:11:46.694Z,16.80
2023-05-05T00:14:14.577Z,16.50
2023-05-05T00:16:42.671Z,16.70
2023-05-05T00:19:11.077Z,16.30
2023-05-05T00:21:38.874Z,15.80
2023-05-05T00:24:06.895Z,15.70
2023-05-05T00:26:34.814Z,15.90
2023-05-05T00:29:02.702Z,15.10
2023-05-05T00:31:30.660Z,14.00
2023-05-05T00:33:58.642Z,13.50
2023-05-05T00:36:26.425Z,13.40
2023-05-05T00:38:54.265Z,13.50
2023-05-05T00:41:22.199Z,12.90
2023-05-05T00:43:50.285Z,12.60
2023-05-05T00:46:26.946Z,11.90
2023-05-05T00:48:55.511Z,12.50
2023-05-05T00:51:24.648Z,11.60
2023-05-05T00:53:52.532Z,12.40
2023-05-05T00:56:22.186Z,12.40
2023-05-05T00:58:50.072Z,11.40
2023-05-05T01:01:18.018Z,11.00
2023-05-05T01:03:46.009Z,11.70
2023-05-05T01:06:52.464Z,11.60
2023-05-05T01:09:53.439Z,11.10
2023-05-05T01:12:58.753Z,10.30
2023-05-05T01:15:46.625Z,11.50
2023-05-05T01:18:45.937Z,10.60
2023-05-05T01:21:28.082Z,11.00
2023-05-05T01:24:41.061Z,10.40
2023-05-05T01:27:34.454Z,10.70
2023-05-05T01:30:35.160Z,9.80
2023-05-05T01:33:09.516Z,10.60
2023-05-05T01:35:44.307Z,10.90
2023-05-05T01:38:17.546Z,10.60
2023-05-05T01:41:17.524Z,10.70
2023-05-05T01:43:48.372Z,10.30
2023-05-05T01:46:16.849Z,10.40
2023-05-05T01:48:45.966Z,10.10
2023-05-05T01:51:16.005Z,10.50
2023-05-05T01:53:44.335Z,10.70
2023-05-05T01:56:12.545Z,10.30
2023-05-05T01:58:42.705Z,10.60
2023-05-05T02:01:11.473Z,10.10
2023-05-05T02:03:39.967Z,10.10
2023-05-05T02:06:08.525Z,10.10
2023-05-05T02:08:37.737Z,10.00
2023-05-05T02:11:05.593Z,10.00
2023-05-05T02:13:33.518Z,9.20
2023-05-05T02:16:03.422Z,10.40
2023-05-05T02:18:33.381Z,9.70
2023-05-05T02:21:02.118Z,9.90
2023-05-05T02:23:30.249Z,9.80
2023-05-05T02:26:04.746Z,9.40
2023-05-05T02:28:47.197Z,9.80
2023-05-05T02:31:16.471Z,9.40
2023-05-05T02:33:45.856Z,10.10
2023-05-05T02:36:21.937Z,8.80
2023-05-05T02:38:56.456Z,8.50
2023-05-05T02:41:26.408Z,8.80
2023-05-05T02:43:55.265Z,8.50
2023-05-05T02:46:23.159Z,8.70
2023-05-05T02:48:51.021Z,8.70
2023-05-05T02:51:18.843Z,8.30
2023-05-05T02:53:46.897Z,8.10
2023-05-05T02:56:47.854Z,8.10
2023-05-05T02:59:25.493Z,7.40
2023-05-05T03:02:16.757Z,7.10
2023-05-05T03:04:55.467Z,7.20
2023-05-05T03:07:31.837Z,7.70
2023-05-05T03:10:20.490Z,7.00
2023-05-05T03:12:58.857Z,7.30
2023-05-05T03:15:31.963Z,7.50
2023-05-05T03:18:00.505Z,6.70
2023-05-05T03:20:29.092Z,7.00
2023-05-05T03:22:57.205Z,6.70
2023-05-05T03:25:48.592Z,6.60
2023-05-05T03:28:17.368Z,6.60
2023-05-05T03:30:45.303Z,7.00
2023-05-05T03:33:13.132Z,6.40
2023-05-05T03:35:40.979Z,7.30
2023-05-05T03:38:08.785Z,6.70
2023-05-05T03:40:44.268Z,6.40
2023-05-05T03:43:12.642Z,6.70
2023-05-05T03:45:40.524Z,6.40
2023-05-05T03:48:09.819Z,6.80
2023-05-05T03:50:37.774Z,6.90
2023-05-05T03:53:05.631Z,5.90
2023-05-05T03:55:33.451Z,6.70
2023-05-05T03:58:01.403Z,6.50
2023-05-05T04:00:29.189Z,6.60
2023-05-05T04:02:57.160Z,6.30
2023-05-05T04:05:26.485Z,5.80
2023-05-05T04:07:54.312Z,5.60
2023-05-05T04:10:22.179Z,6.30
2023-05-05T04:12:50.008Z,5.90
2023-05-05T04:15:17.848Z,6.30
2023-05-05T04:17:45.693Z,5.90
2023-05-05T04:20:13.706Z,6.10
2023-05-05T04:22:41.593Z,6.20
2023-05-05T04:25:09.920Z,5.90
2023-05-05T04:27:37.821Z,5.90
2023-05-05T04:30:07.036Z,6.10
2023-05-05T04:32:35.370Z,6.10
2023-05-05T04:35:03.857Z,5.70
2023-05-05T04:37:31.784Z,5.70
2023-05-05T04:39:59.665Z,5.80
2023-05-05T04:42:27.399Z,5.80
2023-05-05T04:44:55.398Z,5.50
2023-05-05T04:47:23.202Z,5.90
2023-05-05T04:49:51.043Z,5.30
2023-05-05T04:52:18.892Z,5.50
2023-05-05T04:54:46.674Z,6.30
2023-05-05T04:57:14.557Z,5.30
2023-05-05T04:59:42.620Z,4.90
2023-05-05T05:02:10.545Z,5.80
2023-05-05T05:04:38.497Z,5.60
2023-05-05T05:07:06.343Z,6.00
2023-05-05T05:09:34.174Z,5.10
2023-05-05T05:12:03.206Z,5.50
2023-05-05T05:14:37.833Z,5.90
2023-05-05T05:17:06.522Z,5.20
2023-05-05T05:19:34.629Z,6.40
2023-05-05T05:22:02.478Z,5.60
2023-05-05T05:24:30.426Z,6.00
2023-05-05T05:26:58.731Z,5.70
2023-05-05T05:29:27.190Z,5.20
2023-05-05T05:31:55.209Z,5.60
2023-05-05T05:34:23.127Z,5.70
2023-05-05T05:36:51.007Z,5.30
2023-05-05T05:39:18.966Z,4.60
2023-05-05T05:41:46.691Z,5.90
2023-05-05T05:44:14.531Z,6.20
2023-05-05T05:46:42.731Z,5.50
2023-05-05T05:49:10.578Z,6.10
2023-05-05T05:51:38.581Z,6.30
2023-05-05T05:54:08.054Z,5.20
2023-05-05T05:56:35.980Z,5.80
2023-05-05T05:59:09.413Z,5.60
2023-05-05T06:01:52.401Z,5.00
2023-05-05T06:04:20.421Z,5.50
2023-05-05T06:06:48.239Z,4.90
2023-05-05T06:09:16.111Z,5.00
2023-05-05T06:11:43.911Z,5.60
2023-05-05T06:14:11.793Z,5.10
2023-05-05T06:16:39.667Z,5.40
2023-05-05T06:19:09.670Z,5.50
2023-05-05T06:21:37.590Z,6.00
2023-05-05T06:24:05.705Z,5.80
2023-05-05T06:26:33.641Z,5.20
2023-05-05T06:29:01.661Z,5.20
2023-05-05T06:31:29.528Z,4.90
2023-05-05T06:33:57.324Z,4.80
2023-05-05T06:36:25.342Z,6.50
2023-05-05T06:38:53.199Z,5.80
2023-05-05T06:41:21.384Z,5.40
2023-05-05T06:43:49.250Z,5.50
2023-05-05T06:46:17.350Z,6.00
2023-05-05T06:48:45.530Z,6.10
2023-05-05T06:51:13.442Z,6.20
2023-05-05T06:53:41.698Z,5.10
2023-05-05T06:56:19.895Z,5.80
2023-05-05T06:58:47.868Z,5.20
2023-05-05T07:01:15.750Z,6.70
2023-05-05T07:03:44.065Z,5.50
2023-05-05T07:06:11.964Z,6.00
2023-05-05T07:08:39.786Z,5.80
2023-05-05T07:11:09.227Z,4.90
2023-05-05T07:13:37.139Z,5.20
2023-05-05T07:16:05.438Z,5.50
2023-05-05T07:18:33.278Z,6.00
2023-05-05T07:21:01.692Z,5.50
2023-05-05T07:23:29.526Z,5.60
2023-05-05T07:25:57.617Z,5.80
2023-05-05T07:28:25.663Z,5.80
2023-05-05T07:30:53.718Z,5.20
2023-05-05T07:33:21.674Z,4.80
2023-05-05T07:35:49.455Z,5.80
2023-05-05T07:38:17.354Z,6.00
2023-05-05T07:40:45.232Z,5.90
2023-05-05T07:43:13.036Z,5.20
2023-05-05T07:45:40.974Z,5.10
2023-05-05T07:48:08.798Z,6.00
2023-05-05T07:50:36.719Z,5.40
2023-05-05T07:53:13.712Z,6.10
2023-05-05T07:55:42.562Z,5.90
2023-05-05T07:58:11.209Z,5.60
2023-05-05T08:00:39.992Z,5.90
2023-05-05T08:03:11.294Z,5.70
2023-05-05T08:05:39.675Z,5.40
2023-05-05T08:08:07.585Z,5.40
2023-05-05T08:10:35.826Z,6.20
2023-05-05T08:13:03.792Z,6.60
2023-05-05T08:15:31.695Z,6.00
2023-05-05T08:17:59.813Z,5.90
2023-05-05T08:20:29.525Z,6.30
2023-05-05T08:22:57.507Z,5.30
2023-05-05T08:25:27.040Z,6.20
2023-05-05T08:27:55.056Z,6.30
2023-05-05T08:30:22.867Z,6.10
2023-05-05T08:32:50.824Z,5.90
2023-05-05T08:35:18.964Z,5.90
2023-05-05T08:37:47.123Z,5.90
2023-05-05T08:40:15.146Z,6.30
2023-05-05T08:42:44.720Z,6.00
2023-05-05T08:45:13.047Z,6.60
2023-05-05T08:47:42.055Z,6.20
2023-05-05T08:50:11.517Z,5.50
2023-05-05T08:52:44.586Z,5.70
2023-05-05T08:55:41.771Z,5.50
2023-05-05T08:58:10.027Z,7.40
2023-05-05T09:00:37.959Z,5.90
2023-05-05T09:03:06.065Z,6.00
2023-05-05T09:05:34.036Z,6.20
2023-05-05T09:08:02.498Z,5.90
2023-05-05T09:10:32.734Z,5.60
2023-05-05T09:13:00.717Z,5.70
2023-05-05T09:15:28.730Z,6.20
2023-05-05T09:18:03.735Z,6.00
2023-05-05T09:20:36.648Z,7.10
2023-05-05T09:23:13.651Z,5.30
2023-05-05T09:26:02.141Z,6.10
2023-05-05T09:28:30.291Z,5.90
2023-05-05T09:31:14.012Z,6.20
2023-05-05T09:33:42.104Z,5.20
2023-05-05T09:36:10.184Z,5.80
2023-05-05T09:38:38.107Z,5.80
2023-05-05T09:41:06.636Z,5.40
2023-05-05T09:43:52.884Z,5.20
2023-05-05T09:46:21.155Z,5.10
2023-05-05T09:48:49.119Z,5.30
2023-05-05T09:51:29.166Z,5.70
2023-05-05T09:53:57.725Z,5.60
2023-05-05T09:56:40.428Z,5.80
2023-05-05T10:01:41.505Z,5.10
2023-05-05T10:04:30.000Z,5.20
2023-05-05T10:06:58.930Z,5.10
2023-05-05T10:09:27.652Z,5.90
2023-05-05T10:11:56.848Z,5.50
2023-05-05T10:14:25.689Z,6.10
2023-05-05T10:16:55.763Z,5.80
2023-05-05T10:19:24.548Z,5.50
2023-05-05T10:21:56.462Z,5.40
2023-05-05T10:24:43.097Z,5.20
2023-05-05T10:27:20.681Z,4.40
2023-05-05T10:30:04.263Z,5.90
2023-05-05T10:32:55.986Z,5.00
2023-05-05T10:35:31.934Z,5.20
2023-05-05T10:38:00.214Z,5.00
2023-05-05T10:40:28.417Z,4.60
2023-05-05T10:42:56.392Z,5.00
2023-05-05T10:45:24.472Z,4.90
2023-05-05T10:47:53.940Z,6.40
2023-05-05T10:50:31.540Z,5.60
2023-05-05T10:53:22.834Z,4.90
2023-05-05T10:56:17.003Z,5.20
2023-05-05T10:58:59.091Z,5.20
2023-05-05T11:01:33.818Z,4.80
2023-05-05T11:04:23.323Z,5.10
2023-05-05T11:07:13.392Z,4.50
2023-05-05T11:10:15.835Z,5.00
2023-05-05T11:12:57.807Z,5.00
2023-05-05T11:15:28.812Z,4.60
2023-05-05T11:18:05.035Z,4.80
2023-05-05T11:20:40.451Z,5.20
2023-05-05T11:23:08.339Z,4.80
2023-05-05T11:25:36.936Z,4.60
2023-05-05T11:28:05.373Z,4.80
2023-05-05T11:30:33.224Z,5.30
2023-05-05T11:33:37.116Z,5.00
2023-05-05T11:36:09.337Z,4.40
2023-05-05T11:39:10.261Z,4.70
2023-05-05T11:42:16.435Z,4.70
2023-05-05T11:44:44.417Z,4.90
2023-05-05T11:47:12.184Z,5.30
2023-05-05T11:49:40.079Z,5.00
2023-05-05T11:52:14.220Z,5.30
2023-05-05T11:54:48.765Z,5.00
2023-05-05T11:57:21.197Z,5.60
2023-05-05T11:59:54.869Z,5.40
2023-05-05T12:02:24.463Z,5.90
2023-05-05T12:04:52.941Z,6.00
2023-05-05T12:07:24.374Z,6.60
2023-05-05T12:09:53.302Z,6.00
2023-05-05T12:12:22.134Z,5.50
2023-05-05T12:14:53.042Z,5.60
2023-05-05T12:17:22.826Z,5.80
2023-05-05T12:19:55.008Z,5.60
2023-05-05T12:22:27.350Z,4.90
2023-05-05T12:27:27.027Z,4.90
2023-05-05T12:29:56.718Z,4.70
2023-05-05T12:32:28.184Z,4.90
2023-05-05T12:34:57.427Z,5.40
2023-05-05T12:37:27.138Z,5.00
2023-05-05T12:39:55.142Z,5.10
2023-05-05T12:42:23.435Z,6.40
2023-05-05T12:44:51.439Z,5.10
2023-05-05T12:47:33.076Z,5.50
2023-05-05T12:50:03.060Z,5.30
2023-05-05T12:52:45.295Z,5.00
2023-05-05T12:55:13.400Z,4.70
2023-05-05T12:58:01.508Z,5.40
2023-05-05T13:00:29.469Z,5.00
2023-05-05T13:02:58.136Z,4.30
2023-05-05T13:05:38.040Z,5.30
2023-05-05T13:08:06.107Z,5.40
2023-05-05T13:10:34.149Z,5.20
2023-05-05T13:13:02.527Z,5.10
2023-05-05T13:15:30.697Z,5.20
2023-05-05T13:18:02.732Z,4.70
2023-05-05T13:20:31.034Z,5.00
2023-05-05T13:22:58.824Z,5.70
2023-05-05T13:25:26.890Z,4.90
2023-05-05T13:27:54.744Z,4.90
2023-05-05T13:30:22.808Z,5.40
2023-05-05T13:32:50.906Z,5.30
2023-05-05T13:35:18.809Z,5.60
2023-05-05T13:37:47.631Z,6.20
2023-05-05T13:40:15.598Z,5.30
2023-05-05T13:42:44.102Z,4.80
2023-05-05T13:45:12.393Z,6.00
2023-05-05T13:47:42.040Z,5.20
2023-05-05T13:50:10.617Z,5.80
2023-05-05T13:52:38.618Z,5.60
2023-05-05T13:55:07.482Z,6.30
2023-05-05T13:57:35.442Z,6.10
2023-05-05T14:00:04.689Z,5.80
2023-05-05T14:02:34.215Z,6.00
2023-05-05T14:05:02.141Z,6.10
2023-05-05T14:07:30.031Z,5.70
2023-05-05T14:09:58.006Z,5.70
2023-05-05T14:12:27.160Z,5.50
2023-05-05T14:14:55.034Z,5.80
2023-05-05T14:17:23.111Z,5.80
2023-05-05T14:19:51.594Z,5.50
2023-05-05T14:22:19.445Z,6.60
2023-05-05T14:24:47.259Z,6.00
2023-05-05T14:27:15.052Z,5.80
2023-05-05T14:29:43.116Z,5.20
2023-05-05T14:32:11.070Z,5.30
2023-05-05T14:34:39.080Z,5.10
2023-05-05T14:37:06.974Z,5.50
2023-05-05T14:39:34.867Z,5.20
2023-05-05T14:42:02.779Z,5.40
2023-05-05T14:44:30.637Z,7.00
2023-05-05T14:46:58.520Z,8.70
2023-05-05T14:49:26.485Z,5.50
2023-05-05T14:51:55.490Z,5.50
2023-05-05T14:54:28.803Z,5.30
2023-05-05T14:56:58.328Z,6.30
2023-05-05T14:59:27.657Z,6.50
2023-05-05T15:01:56.311Z,5.60
2023-05-05T15:04:24.305Z,5.60
2023-05-05T15:06:52.306Z,5.30
2023-05-05T15:09:20.433Z,5.40
2023-05-05T15:11:48.265Z,5.80
2023-05-05T15:14:16.239Z,6.20
2023-05-05T15:16:44.070Z,6.00
2023-05-05T15:19:14.831Z,5.70
2023-05-05T15:21:43.976Z,6.20
2023-05-05T15:24:11.916Z,5.60
2023-05-05T15:26:39.751Z,6.40
2023-05-05T15:29:07.557Z,6.00
2023-05-05T15:31:35.317Z,5.20
2023-05-05T15:34:03.122Z,5.50
2023-05-05T15:36:32.267Z,5.50
2023-05-05T15:39:00.140Z,5.40
2023-05-05T15:41:29.394Z,5.70
2023-05-05T15:43:57.183Z,6.20
2023-05-05T15:46:26.324Z,6.10
2023-05-05T15:48:54.095Z,5.90
2023-05-05T15:51:22.120Z,5.60
2023-05-05T15:53:50.016Z,6.40
2023-05-05T15:56:17.951Z,6.00
2023-05-05T15:58:45.817Z,5.70
2023-05-05T16:01:13.695Z,6.20
2023-05-05T16:03:41.603Z,6.70
2023-05-05T16:06:12.209Z,13.20
2023-05-05T16:08:39.970Z,8.60
2023-05-05T16:11:07.789Z,7.80
2023-05-05T16:13:35.919Z,6.00
2023-05-05T16:16:06.919Z,7.00
2023-05-05T16:18:34.781Z,6.20
2023-05-05T16:21:02.935Z,6.00
2023-05-05T16:23:30.798Z,5.40
2023-05-05T16:25:58.588Z,5.10
2023-05-05T16:28:26.800Z,5.20
2023-05-05T16:30:54.666Z,5.00
2023-05-05T16:33:22.994Z,5.20
2023-05-05T16:35:50.789Z,5.10
2023-05-05T16:38:18.636Z,4.90
2023-05-05T16:40:46.423Z,6.70
2023-05-05T16:43:14.244Z,5.00
2023-05-05T16:45:42.149Z,4.40
2023-05-05T16:48:10.190Z,4.20
2023-05-05T16:50:38.005Z,4.70
2023-05-05T16:53:06.496Z,4.40
2023-05-05T16:55:34.338Z,5.30
2023-05-05T16:58:02.213Z,7.00
2023-05-05T17:00:30.461Z,6.90
2023-05-05T17:02:58.725Z,6.00
2023-05-05T17:05:29.091Z,6.00
2023-05-05T17:07:57.137Z,6.00
2023-05-05T17:10:24.985Z,6.30
2023-05-05T17:12:52.946Z,5.20
2023-05-05T17:15:21.660Z,7.00
2023-05-05T17:17:49.783Z,5.90
2023-05-05T17:20:20.586Z,6.20
2023-05-05T17:22:48.732Z,6.50
2023-05-05T17:25:16.594Z,6.60
2023-05-05T17:27:45.930Z,5.80
2023-05-05T17:30:14.521Z,6.00
2023-05-05T17:32:42.834Z,6.20
2023-05-05T17:35:11.192Z,6.70
2023-05-05T17:37:39.477Z,7.00
2023-05-05T17:40:08.532Z,6.40
2023-05-05T17:42:39.133Z,6.10
2023-05-05T17:45:08.294Z,6.10
2023-05-05T17:47:36.711Z,5.90
2023-05-05T17:50:05.544Z,5.80
2023-05-05T17:52:33.409Z,6.50
2023-05-05T17:55:01.666Z,5.80
2023-05-05T17:57:29.561Z,6.50
2023-05-05T17:59:57.370Z,7.50
2023-05-05T18:02:25.340Z,8.30
2023-05-05T18:04:54.290Z,9.00
2023-05-05T18:07:23.674Z,7.70
2023-05-05T18:09:51.969Z,5.90
2023-05-05T18:12:19.930Z,4.80
2023-05-05T18:14:47.900Z,5.90
2023-05-05T18:17:15.668Z,6.30
2023-05-05T18:19:46.561Z,6.90
2023-05-05T18:22:16.471Z,6.90
2023-05-05T18:24:44.353Z,6.20
2023-05-05T18:27:12.389Z,9.20
2023-05-05T18:29:40.282Z,8.50
2023-05-05T18:32:08.166Z,7.10
2023-05-05T18:34:36.101Z,6.70
2023-05-05T18:37:03.933Z,7.60
2023-05-05T18:39:31.836Z,6.40
2023-05-05T18:41:59.800Z,7.10
2023-05-05T18:44:27.733Z,6.10
2023-05-05T18:46:55.663Z,6.30
2023-05-05T18:49:24.755Z,6.00
2023-05-05T18:51:53.697Z,6.70
2023-05-05T18:54:22.096Z,6.10
2023-05-05T18:56:49.928Z,7.10
2023-05-05T18:59:18.805Z,6.80
2023-05-05T19:01:46.659Z,8.10
2023-05-05T19:04:29.606Z,8.80
2023-05-05T19:06:59.666Z,7.40
2023-05-05T19:09:27.802Z,7.30
2023-05-05T19:11:55.793Z,7.50
2023-05-05T19:14:23.791Z,6.80
2023-05-05T19:16:52.239Z,6.20
2023-05-05T19:19:20.136Z,5.30
2023-05-05T19:21:48.490Z,5.70
2023-05-05T19:24:16.466Z,5.40
2023-05-05T19:26:44.400Z,5.50
2023-05-05T19:29:12.925Z,5.80
2023-05-05T19:31:40.731Z,4.60
2023-05-05T19:34:08.815Z,4.90
2023-05-05T19:36:36.858Z,4.60
2023-05-05T19:39:05.138Z,4.40
2023-05-05T19:41:35.370Z,4.90
2023-05-05T19:44:03.426Z,4.90
2023-05-05T19:46:31.412Z,4.10
2023-05-05T19:48:59.531Z,4.60
2023-05-05T19:51:27.502Z,5.70
2023-05-05T19:53:55.364Z,5.20
2023-05-05T19:56:24.052Z,5.50
2023-05-05T19:59:01.433Z,4.80
2023-05-05T20:01:29.828Z,3.80
2023-05-05T20:03:58.141Z,4.40
2023-05-05T20:06:27.035Z,4.40
2023-05-05T20:08:55.674Z,4.70
2023-05-05T20:11:25.836Z,5.20
2023-05-05T20:13:53.768Z,4.60
2023-05-05T20:16:22.002Z,4.40
2023-05-05T20:18:50.066Z,4.40
2023-05-05T20:21:18.661Z,5.10
2023-05-05T20:23:47.324Z,4.60
2023-05-05T20:26:15.189Z,4.20
2023-05-05T20:28:45.354Z,4.70
2023-05-05T20:31:14.619Z,4.60
2023-05-05T20:33:42.649Z,4.20
2023-05-05T20:36:11.489Z,3.80
2023-05-05T20:38:39.518Z,4.80
2023-05-05T20:41:07.459Z,4.60
2023-05-05T20:43:36.783Z,4.50
2023-05-05T20:46:05.820Z,5.20
2023-05-05T20:48:33.894Z,6.00
2023-05-05T20:51:04.738Z,5.00
2023-05-05T20:53:32.890Z,4.50
2023-05-05T20:56:01.081Z,6.00
2023-05-05T20:58:29.980Z,5.20
2023-05-05T21:00:58.505Z,5.30
2023-05-05T21:03:26.353Z,4.40
2023-05-05T21:05:54.462Z,4.60
2023-05-05T21:08:22.391Z,4.90
2023-05-05T21:10:53.226Z,5.50
2023-05-05T21:13:25.600Z,5.30
2023-05-05T21:15:53.622Z,4.80
2023-05-05T21:18:21.740Z,5.30
2023-05-05T21:20:50.842Z,5.60
2023-05-05T21:23:18.698Z,5.00
2023-05-05T21:25:46.503Z,5.00
2023-05-05T21:28:14.351Z,4.60
2023-05-05T21:30:42.215Z,4.40
2023-05-05T21:33:10.308Z,4.90
2023-05-05T21:35:38.318Z,5.00
2023-05-05T21:38:06.147Z,5.40
2023-05-05T21:40:33.975Z,5.00
2023-05-05T21:43:01.903Z,5.50
2023-05-05T21:45:29.780Z,5.20
2023-05-05T21:47:57.703Z,4.90
2023-05-05T21:50:26.593Z,4.40
2023-05-05T21:52:55.445Z,4.80
2023-05-05T21:55:23.349Z,5.00
2023-05-05T21:57:51.371Z,5.20
2023-05-05T22:00:19.337Z,4.80
2023-05-05T22:02:50.690Z,4.80
2023-05-05T22:05:18.636Z,5.30
2023-05-05T22:07:46.601Z,4.80
2023-05-05T22:10:14.498Z,5.20
2023-05-05T22:12:42.314Z,5.10
2023-05-05T22:15:10.929Z,5.10
2023-05-05T22:17:38.946Z,5.20
2023-05-05T22:20:11.179Z,4.90
2023-05-05T22:22:39.147Z,5.30
2023-05-05T22:25:07.806Z,4.80
2023-05-05T22:27:35.966Z,6.20
2023-05-05T22:30:04.313Z,4.90
2023-05-05T22:32:32.722Z,5.40
2023-05-05T22:35:01.422Z,5.90
2023-05-05T22:37:29.220Z,4.80
2023-05-05T22:39:57.028Z,5.50
2023-05-05T22:42:24.825Z,5.90
2023-05-05T22:44:52.937Z,5.70
2023-05-05T22:47:20.806Z,4.80
2023-05-05T22:49:48.683Z,5.40
2023-05-05T22:52:16.637Z,4.90
2023-05-05T22:54:44.447Z,4.90
2023-05-05T22:57:12.252Z,5.00
2023-05-05T22:59:40.152Z,4.80
2023-05-05T23:02:07.953Z,5.10
2023-05-05T23:04:36.252Z,5.00
2023-05-05T23:07:04.177Z,5.50
2023-05-05T23:09:32.115Z,4.60
2023-05-05T23:11:59.946Z,5.50
2023-05-05T23:14:27.763Z,5.30
2023-05-05T23:16:55.533Z,5.70
2023-05-05T23:19:24.184Z,4.80
2023-05-05T23:21:53.661Z,5.30
2023-05-05T23:24:22.042Z,5.20
2023-05-05T23:26:49.944Z,5.60
2023-05-05T23:29:18.979Z,4.70
2023-05-05T23:31:47.047Z,5.00
2023-05-05T23:34:15.034Z,5.30
2023-05-05T23:36:43.420Z,5.50
2023-05-05T23:39:11.465Z,4.80
2023-05-05T23:41:39.354Z,5.30
2023-05-05T23:44:07.224Z,5.20
2023-05-05T23:46:35.157Z,5.80
2023-05-05T23:49:03.044Z,5.50
2023-05-05T23:51:31.091Z,6.30
2023-05-05T23:53:58.955Z,5.30
2023-05-05T23:56:26.921Z,5.20
2023-05-05T23:58:54.904Z,5.30
